Time;durP1;ratioP1;P1;durP2;ratioP2;P2;SDS_P1;SDS_P2;PMS_P1;PMS_P2;Temp;Humidity;BMP_temperature;BMP_pressure;BME280_temperature;BME280_humidity;BME280_pressure;Samples;Min_cycle;Max_cycle;Signal;HPM_P1;HPM_P2
2023/03/13 00:00:49;;;;;;;3.58;1.48;;;;;;;;;;5032622;28;20472;-79
2023/03/13 00:03:15;;;;;;;3.33;1.40;;;;;;;;;;5031495;28;20380;-79
2023/03/13 00:05:41;;;;;;;4.70;1.52;;;;;;;;;;5032694;28;20390;-79
2023/03/13 00:08:07;;;;;;;3.63;1.23;;;;;;;;;;5021738;28;20889;-79
2023/03/13 00:10:37;;;;;;;4.70;1.35;;;;;;;;;;5031273;28;20415;-80
2023/03/13 00:13:03;;;;;;;3.63;1.35;;;;;;;;;;5032412;28;20849;-79
2023/03/13 00:15:29;;;;;;;2.80;1.30;;;;;;;;;;5031928;28;20418;-79
2023/03/13 00:17:55;;;;;;;4.47;1.40;;;;;;;;;;5032045;28;20411;-79
2023/03/13 00:20:21;;;;;;;1.95;1.40;;;;;;;;;;5031963;28;20418;-80
2023/03/13 00:22:47;;;;;;;2.45;1.10;;;;;;;;;;5035141;28;20394;-80
2023/03/13 00:25:13;;;;;;;3.05;1.40;;;;;;;;;;5036513;28;20929;-79
2023/03/13 00:27:39;;;;;;;3.37;1.40;;;;;;;;;;5031333;28;20479;-80
2023/03/13 00:30:05;;;;;;;3.10;1.30;;;;;;;;;;5031863;28;20390;-79
2023/03/13 00:32:31;;;;;;;2.70;1.20;;;;;;;;;;5031928;28;20433;-80
2023/03/13 00:34:57;;;;;;;4.00;1.30;;;;;;;;;;5031658;28;20418;-79
2023/03/13 00:37:23;;;;;;;2.50;1.25;;;;;;;;;;5031875;28;20463;-79
2023/03/13 00:39:49;;;;;;;4.18;1.58;;;;;;;;;;5031035;28;20384;-79
2023/03/13 00:42:15;;;;;;;3.35;1.33;;;;;;;;;;5031804;28;20501;-79
2023/03/13 00:44:41;;;;;;;3.53;1.40;;;;;;;;;;5031818;28;20433;-79
2023/03/13 00:47:07;;;;;;;4.00;1.33;;;;;;;;;;5031680;28;20868;-79
2023/03/13 00:49:33;;;;;;;3.88;1.30;;;;;;;;;;5031621;28;20458;-80
2023/03/13 00:51:59;;;;;;;3.38;1.20;;;;;;;;;;5031672;28;20780;-79
2023/03/13 00:54:25;;;;;;;3.17;1.23;;;;;;;;;;5030465;28;20387;-79
2023/03/13 00:56:51;;;;;;;4.93;1.52;;;;;;;;;;5030287;28;20764;-80
2023/03/13 00:59:17;;;;;;;2.60;1.45;;;;;;;;;;5031933;28;20379;-79
2023/03/13 01:01:43;;;;;;;3.80;1.40;;;;;;;;;;5037387;28;20852;-79
2023/03/13 01:04:10;;;;;;;3.40;1.45;;;;;;;;;;5031496;28;20379;-79
2023/03/13 01:06:37;;;;;;;3.10;1.27;;;;;;;;;;5030195;28;20383;-79
2023/03/13 01:09:05;;;;;;;3.85;1.52;;;;;;;;;;5031207;28;20408;-79
2023/03/13 01:11:32;;;;;;;3.00;1.17;;;;;;;;;;5031516;28;20383;-79
2023/03/13 01:13:59;;;;;;;3.25;1.50;;;;;;;;;;5034466;28;20406;-79
2023/03/13 01:16:26;;;;;;;4.35;1.80;;;;;;;;;;5031313;28;20410;-79
2023/03/13 01:18:55;;;;;;;3.70;1.80;;;;;;;;;;5031106;28;20394;-79
2023/03/13 01:21:22;;;;;;;4.38;1.60;;;;;;;;;;5031304;28;20381;-79
2023/03/13 01:23:49;;;;;;;3.05;1.70;;;;;;;;;;5031216;28;20772;-79
2023/03/13 01:26:15;;;;;;;2.53;1.48;;;;;;;;;;5031327;28;20461;-79
2023/03/13 01:28:41;;;;;;;3.25;1.50;;;;;;;;;;5031208;28;20478;-79
2023/03/13 01:31:11;;;;;;;2.38;1.42;;;;;;;;;;5031107;28;20925;-79
2023/03/13 01:33:37;;;;;;;2.92;1.40;;;;;;;;;;5031222;28;20740;-79
2023/03/13 01:36:03;;;;;;;3.72;1.70;;;;;;;;;;5026956;28;20403;-79
2023/03/13 01:38:29;;;;;;;2.42;1.40;;;;;;;;;;5022042;28;20387;-79
2023/03/13 01:40:55;;;;;;;2.58;1.30;;;;;;;;;;5030946;28;20375;-79
2023/03/13 01:43:23;;;;;;;2.38;1.33;;;;;;;;;;5029486;28;20406;-79
2023/03/13 01:46:13;;;;;;;2.35;1.20;;;;;;;;;;5031052;28;20399;-79
2023/03/13 01:48:58;;;;;;;2.30;1.40;;;;;;;;;;5030966;28;20453;-79
2023/03/13 01:51:29;;;;;;;2.40;1.40;;;;;;;;;;5030988;28;20375;-79
2023/03/13 01:54:09;;;;;;;3.08;1.25;;;;;;;;;;5031124;28;20473;-80
2023/03/13 01:56:46;;;;;;;3.03;1.20;;;;;;;;;;5030724;28;20501;-79
2023/03/13 01:59:14;;;;;;;2.50;1.10;;;;;;;;;;5030949;28;20383;-79
2023/03/13 02:01:41;;;;;;;2.57;1.20;;;;;;;;;;5030784;28;20480;-80
2023/03/13 02:04:08;;;;;;;2.63;1.20;;;;;;;;;;5029255;28;20387;-79
2023/03/13 02:06:35;;;;;;;4.20;1.20;;;;;;;;;;5029623;28;20390;-80
2023/03/13 02:09:03;;;;;;;3.17;1.30;;;;;;;;;;5030772;28;20466;-80
2023/03/13 02:11:45;;;;;;;2.65;1.13;;;;;;;;;;5030900;28;20394;-79
2023/03/13 02:14:12;;;;;;;2.10;1.08;;;;;;;;;;5030844;28;20429;-80
2023/03/13 02:16:38;;;;;;;4.32;1.30;;;;;;;;;;5030599;28;20415;-79
2023/03/13 02:19:10;;;;;;;3.70;1.40;;;;;;;;;;5030603;28;20384;-79
2023/03/13 02:21:40;;;;;;;1.80;1.10;;;;;;;;;;5030744;28;20501;-79
2023/03/13 02:24:13;;;;;;;2.07;1.20;;;;;;;;;;5030603;28;20510;-79
2023/03/13 02:26:39;;;;;;;2.72;1.30;;;;;;;;;;5033337;28;20375;-79
2023/03/13 02:29:05;;;;;;;2.03;1.15;;;;;;;;;;5030470;28;20872;-79
2023/03/13 02:31:31;;;;;;;1.17;0.90;;;;;;;;;;5030684;28;20394;-79
2023/03/13 02:33:59;;;;;;;2.47;1.20;;;;;;;;;;5032787;28;20514;-80
2023/03/13 02:36:25;;;;;;;2.35;1.20;;;;;;;;;;5033648;28;21033;-80
2023/03/13 02:38:54;;;;;;;1.55;1.10;;;;;;;;;;5036894;28;20382;-79
2023/03/13 02:41:21;;;;;;;2.45;1.13;;;;;;;;;;5036928;28;20411;-80
2023/03/13 02:43:47;;;;;;;2.05;1.10;;;;;;;;;;5042407;28;20387;-79
2023/03/13 02:46:14;;;;;;;1.95;1.13;;;;;;;;;;5047869;28;20446;-80
2023/03/13 02:48:42;;;;;;;2.42;1.10;;;;;;;;;;5041579;28;20981;-80
2023/03/13 02:51:23;;;;;;;3.10;1.17;;;;;;;;;;5034941;28;20760;-80
2023/03/13 02:53:50;;;;;;;1.47;0.90;;;;;;;;;;5046266;28;20409;-80
2023/03/13 02:56:19;;;;;;;2.15;1.00;;;;;;;;;;5039059;28;20403;-81
2023/03/13 02:58:45;;;;;;;2.08;1.17;;;;;;;;;;5035608;28;20387;-80
2023/03/13 03:01:11;;;;;;;1.98;1.10;;;;;;;;;;5033050;28;20410;-80
2023/03/13 03:03:37;;;;;;;1.85;1.10;;;;;;;;;;5033330;28;20379;-80
2023/03/13 03:06:04;;;;;;;2.30;1.00;;;;;;;;;;5033974;28;20387;-80
2023/03/13 03:08:30;;;;;;;3.65;1.30;;;;;;;;;;5033570;28;20387;-80
2023/03/13 03:10:56;;;;;;;2.45;1.17;;;;;;;;;;5036032;28;20465;-80
2023/03/13 03:13:22;;;;;;;3.53;1.27;;;;;;;;;;5033516;28;20380;-80
2023/03/13 03:15:48;;;;;;;2.45;1.17;;;;;;;;;;5033434;28;20935;-80
2023/03/13 03:18:14;;;;;;;2.75;1.20;;;;;;;;;;5033295;28;20379;-79
2023/03/13 03:20:40;;;;;;;1.65;1.02;;;;;;;;;;5033272;28;20743;-80
2023/03/13 03:23:06;;;;;;;2.03;1.00;;;;;;;;;;5033479;28;20379;-79
2023/03/13 03:25:32;;;;;;;2.08;1.05;;;;;;;;;;5033365;28;20864;-80
2023/03/13 03:27:58;;;;;;;1.38;1.00;;;;;;;;;;5032236;28;20422;-80
2023/03/13 03:30:24;;;;;;;4.30;1.15;;;;;;;;;;5033060;28;20419;-80
2023/03/13 03:32:50;;;;;;;3.47;1.13;;;;;;;;;;5032811;28;20394;-80
2023/03/13 03:35:16;;;;;;;4.65;1.20;;;;;;;;;;5032853;28;20406;-80
2023/03/13 03:37:42;;;;;;;2.55;1.35;;;;;;;;;;5033119;28;20379;-80
2023/03/13 03:40:09;;;;;;;4.70;1.45;;;;;;;;;;5032035;28;20856;-80
2023/03/13 03:42:35;;;;;;;2.63;1.38;;;;;;;;;;5032603;28;20440;-80
2023/03/13 03:45:01;;;;;;;2.53;1.20;;;;;;;;;;5029640;28;20394;-80
2023/03/13 03:47:27;;;;;;;1.85;1.23;;;;;;;;;;5031818;28;20388;-80
2023/03/13 03:49:54;;;;;;;2.10;1.10;;;;;;;;;;5031742;28;20387;-80
2023/03/13 03:52:20;;;;;;;3.30;1.20;;;;;;;;;;5030734;28;20727;-81
2023/03/13 03:54:46;;;;;;;1.95;1.00;;;;;;;;;;5029896;28;20869;-80
2023/03/13 03:57:12;;;;;;;2.38;1.00;;;;;;;;;;5031481;28;20389;-81
2023/03/13 03:59:38;;;;;;;3.55;0.95;;;;;;;;;;5031426;28;20466;-80
2023/03/13 04:02:04;;;;;;;3.33;1.30;;;;;;;;;;5025698;28;20881;-80
2023/03/13 04:04:30;;;;;;;2.53;1.30;;;;;;;;;;5031577;28;20470;-79
2023/03/13 04:06:56;;;;;;;2.38;1.20;;;;;;;;;;5031408;28;20387;-79
2023/03/13 04:09:22;;;;;;;1.70;1.00;;;;;;;;;;5031137;28;20403;-79
2023/03/13 04:11:48;;;;;;;2.67;1.17;;;;;;;;;;5029898;28;20387;-79
2023/03/13 04:14:13;;;;;;;1.98;1.20;;;;;;;;;;5031371;28;20390;-79
2023/03/13 04:16:39;;;;;;;3.40;1.20;;;;;;;;;;5031107;28;20442;-80
2023/03/13 04:19:06;;;;;;;2.47;1.30;;;;;;;;;;5031306;28;20860;-80
2023/03/13 04:21:32;;;;;;;2.67;1.20;;;;;;;;;;5031115;28;20379;-80
2023/03/13 04:23:58;;;;;;;2.78;1.10;;;;;;;;;;5031435;28;20379;-80
2023/03/13 04:26:24;;;;;;;2.53;1.40;;;;;;;;;;5031047;28;20749;-80
2023/03/13 04:28:50;;;;;;;2.70;1.37;;;;;;;;;;5031759;28;20402;-80
2023/03/13 04:31:16;;;;;;;2.28;1.20;;;;;;;;;;5031589;28;20391;-80
2023/03/13 04:33:42;;;;;;;2.20;1.20;;;;;;;;;;5032342;28;20379;-80
2023/03/13 04:36:08;;;;;;;2.55;1.15;;;;;;;;;;5033994;28;20764;-80
2023/03/13 04:38:34;;;;;;;2.00;1.10;;;;;;;;;;5031831;28;20856;-80
2023/03/13 04:41:00;;;;;;;2.93;1.30;;;;;;;;;;5031795;28;20372;-80
2023/03/13 04:43:26;;;;;;;2.78;1.50;;;;;;;;;;5029798;28;20407;-80
2023/03/13 04:45:53;;;;;;;3.40;1.50;;;;;;;;;;5025408;28;20876;-80
2023/03/13 04:48:19;;;;;;;3.10;2.10;;;;;;;;;;5026583;28;21203;-80
2023/03/13 04:50:47;;;;;;;3.15;1.70;;;;;;;;;;5031242;28;20391;-80
2023/03/13 04:53:13;;;;;;;2.55;1.50;;;;;;;;;;5029343;28;20870;-80
2023/03/13 04:55:39;;;;;;;2.60;1.58;;;;;;;;;;5029109;28;20792;-80
2023/03/13 04:58:05;;;;;;;2.08;1.30;;;;;;;;;;5028494;28;20522;-80
2023/03/13 05:00:31;;;;;;;2.28;1.15;;;;;;;;;;5029721;28;20478;-80
2023/03/13 05:02:57;;;;;;;3.50;1.50;;;;;;;;;;5029609;28;20379;-80
2023/03/13 05:05:23;;;;;;;3.88;1.80;;;;;;;;;;5028435;28;20395;-80
2023/03/13 05:07:49;;;;;;;3.55;1.70;;;;;;;;;;5031281;28;20395;-80
2023/03/13 05:10:15;;;;;;;2.30;1.55;;;;;;;;;;5029988;28;20414;-80
2023/03/13 05:12:41;;;;;;;3.20;1.50;;;;;;;;;;5031181;28;20395;-80
2023/03/13 05:15:08;;;;;;;2.00;1.33;;;;;;;;;;5031318;28;20879;-80
2023/03/13 05:17:34;;;;;;;3.05;1.25;;;;;;;;;;5033779;28;20386;-80
2023/03/13 05:20:00;;;;;;;3.28;1.52;;;;;;;;;;5031349;28;20383;-80
2023/03/13 05:22:26;;;;;;;2.00;1.30;;;;;;;;;;5030319;28;20441;-80
2023/03/13 05:24:52;;;;;;;3.45;1.38;;;;;;;;;;5031201;28;20860;-80
2023/03/13 05:27:18;;;;;;;3.72;1.58;;;;;;;;;;5029615;28;20474;-80
2023/03/13 05:29:44;;;;;;;3.10;1.65;;;;;;;;;;5029310;28;20379;-80
2023/03/13 05:32:10;;;;;;;3.55;1.50;;;;;;;;;;5029807;28;20399;-80
2023/03/13 05:34:36;;;;;;;3.58;1.50;;;;;;;;;;5031004;28;20390;-80
2023/03/13 05:37:02;;;;;;;2.08;1.48;;;;;;;;;;5031036;28;20549;-80
2023/03/13 05:39:27;;;;;;;2.70;1.50;;;;;;;;;;5030635;28;20896;-80
2023/03/13 05:41:53;;;;;;;2.67;1.50;;;;;;;;;;5030089;28;20375;-80
2023/03/13 05:44:19;;;;;;;3.25;1.60;;;;;;;;;;5031105;28;20896;-80
2023/03/13 05:46:45;;;;;;;2.90;1.83;;;;;;;;;;5031004;28;20442;-80
2023/03/13 05:49:11;;;;;;;3.33;1.60;;;;;;;;;;5030927;28;20382;-79
2023/03/13 05:51:37;;;;;;;3.13;1.83;;;;;;;;;;5030932;28;20864;-81
2023/03/13 05:54:03;;;;;;;2.70;1.60;;;;;;;;;;5030960;28;20380;-79
2023/03/13 05:56:30;;;;;;;3.30;1.40;;;;;;;;;;5030725;28;20429;-79
2023/03/13 05:58:56;;;;;;;3.60;1.90;;;;;;;;;;5030873;28;20384;-80
2023/03/13 06:01:22;;;;;;;3.15;1.73;;;;;;;;;;5029175;28;20730;-80
2023/03/13 06:03:47;;;;;;;2.72;1.63;;;;;;;;;;5031161;28;20375;-80
2023/03/13 06:06:13;;;;;;;1.97;1.47;;;;;;;;;;5032411;28;21148;-79
2023/03/13 06:08:39;;;;;;;4.07;1.70;;;;;;;;;;5034582;28;20561;-79
2023/03/13 06:11:06;;;;;;;2.83;1.40;;;;;;;;;;5038907;28;20446;-79
2023/03/13 06:13:32;;;;;;;3.28;1.55;;;;;;;;;;5049158;28;20395;-78
2023/03/13 06:15:58;;;;;;;2.58;1.30;;;;;;;;;;5041046;28;20441;-80
2023/03/13 06:18:24;;;;;;;3.38;1.73;;;;;;;;;;5037657;28;20371;-80
2023/03/13 06:20:55;;;;;;;3.55;1.67;;;;;;;;;;5036695;28;20391;-80
2023/03/13 06:23:21;;;;;;;3.47;1.60;;;;;;;;;;5034872;28;20460;-80
2023/03/13 06:25:47;;;;;;;4.18;1.88;;;;;;;;;;5034836;28;20383;-79
2023/03/13 06:28:13;;;;;;;1.98;1.48;;;;;;;;;;5034646;28;20466;-80
2023/03/13 06:30:39;;;;;;;2.67;1.50;;;;;;;;;;5034723;28;20417;-80
2023/03/13 06:33:05;;;;;;;4.23;1.70;;;;;;;;;;5046097;28;20381;-80
2023/03/13 06:35:31;;;;;;;4.10;1.67;;;;;;;;;;5036090;28;20469;-79
2023/03/13 06:37:57;;;;;;;2.17;1.52;;;;;;;;;;5034432;28;20375;-79
2023/03/13 06:40:23;;;;;;;3.35;1.50;;;;;;;;;;5033212;28;20393;-79
2023/03/13 06:42:49;;;;;;;2.67;1.65;;;;;;;;;;5034389;28;20390;-78
2023/03/13 06:45:15;;;;;;;2.58;1.40;;;;;;;;;;5034374;28;20928;-78
2023/03/13 06:47:41;;;;;;;3.15;1.30;;;;;;;;;;5034141;28;20386;-79
2023/03/13 06:50:07;;;;;;;2.20;1.23;;;;;;;;;;5034123;28;20478;-78
2023/03/13 06:52:33;;;;;;;2.15;1.40;;;;;;;;;;5034171;28;20718;-79
2023/03/13 06:54:59;;;;;;;2.42;1.42;;;;;;;;;;5033880;28;20395;-79
2023/03/13 06:57:25;;;;;;;2.58;1.35;;;;;;;;;;5033871;28;20745;-79
2023/03/13 06:59:51;;;;;;;3.78;1.60;;;;;;;;;;5033763;28;20398;-79
2023/03/13 07:02:17;;;;;;;2.40;1.50;;;;;;;;;;5033870;28;20390;-80
2023/03/13 07:04:45;;;;;;;1.92;1.33;;;;;;;;;;5034218;28;20412;-78
2023/03/13 07:07:11;;;;;;;1.60;1.10;;;;;;;;;;5033814;28;20460;-79
2023/03/13 07:09:37;;;;;;;3.08;1.48;;;;;;;;;;5033357;28;20908;-78
2023/03/13 07:12:04;;;;;;;2.38;1.48;;;;;;;;;;5033762;28;20394;-78
2023/03/13 07:14:30;;;;;;;3.65;1.58;;;;;;;;;;5033652;28;20386;-79
2023/03/13 07:16:58;;;;;;;2.10;1.20;;;;;;;;;;5033395;28;20914;-79
2023/03/13 07:19:25;;;;;;;2.38;1.30;;;;;;;;;;5031970;28;20392;-79
2023/03/13 07:21:51;;;;;;;1.58;1.20;;;;;;;;;;5033292;28;20390;-79
2023/03/13 07:24:18;;;;;;;3.28;1.10;;;;;;;;;;5033509;28;20383;-79
2023/03/13 07:26:44;;;;;;;2.07;1.27;;;;;;;;;;5033830;28;20937;-80
2023/03/13 07:29:10;;;;;;;3.08;1.30;;;;;;;;;;5031300;28;20462;-80
2023/03/13 07:31:38;;;;;;;2.90;1.23;;;;;;;;;;5027298;28;20879;-79
2023/03/13 07:34:04;;;;;;;2.08;1.20;;;;;;;;;;5033284;28;20780;-79
2023/03/13 07:36:30;;;;;;;1.40;1.00;;;;;;;;;;5033182;28;20643;-80
2023/03/13 07:38:56;;;;;;;1.60;1.20;;;;;;;;;;5033112;28;20441;-80
2023/03/13 07:41:22;;;;;;;2.00;1.10;;;;;;;;;;5033130;28;20470;-80
2023/03/13 07:43:48;;;;;;;2.05;1.10;;;;;;;;;;5032965;28;20391;-80
2023/03/13 07:46:17;;;;;;;2.65;1.25;;;;;;;;;;5033095;28;20390;-79
2023/03/13 07:48:43;;;;;;;2.53;1.02;;;;;;;;;;5032832;28;20469;-79
2023/03/13 07:51:14;;;;;;;1.70;0.90;;;;;;;;;;5032752;28;20903;-79
2023/03/13 07:53:40;;;;;;;1.45;1.10;;;;;;;;;;5032838;28;20406;-80
2023/03/13 07:56:07;;;;;;;2.35;1.08;;;;;;;;;;5032497;28;20406;-80
2023/03/13 07:58:34;;;;;;;2.97;1.20;;;;;;;;;;5033078;28;20403;-80
2023/03/13 08:01:01;;;;;;;2.13;1.13;;;;;;;;;;5036774;28;20375;-80
2023/03/13 08:03:27;;;;;;;1.50;0.90;;;;;;;;;;5034097;28;20383;-79
2023/03/13 08:05:57;;;;;;;2.10;1.10;;;;;;;;;;5032961;28;20383;-79
2023/03/13 08:08:23;;;;;;;1.40;1.05;;;;;;;;;;5033385;28;20732;-79
2023/03/13 08:10:49;;;;;;;3.30;1.10;;;;;;;;;;5031113;28;20415;-80
2023/03/13 08:13:15;;;;;;;2.08;1.30;;;;;;;;;;5033110;28;20461;-80
2023/03/13 08:15:41;;;;;;;2.40;1.05;;;;;;;;;;5032713;28;20493;-80
2023/03/13 08:18:07;;;;;;;3.08;1.40;;;;;;;;;;5031322;28;20895;-80
2023/03/13 08:20:33;;;;;;;2.67;1.67;;;;;;;;;;5032762;28;20853;-80
2023/03/13 08:22:59;;;;;;;2.97;1.50;;;;;;;;;;5034952;28;20470;-81
2023/03/13 08:25:25;;;;;;;3.15;1.67;;;;;;;;;;5032416;28;20394;-80
2023/03/13 08:27:51;;;;;;;3.88;1.40;;;;;;;;;;5032342;28;20437;-80
2023/03/13 08:30:17;;;;;;;5.57;1.30;;;;;;;;;;5031723;28;20388;-80
2023/03/13 08:32:43;;;;;;;1.95;1.20;;;;;;;;;;5032049;28;20422;-80
2023/03/13 08:35:09;;;;;;;2.60;1.30;;;;;;;;;;5030869;28;20434;-80
2023/03/13 08:37:35;;;;;;;2.55;1.30;;;;;;;;;;5032153;28;20872;-80
2023/03/13 08:40:02;;;;;;;1.73;1.25;;;;;;;;;;5033810;28;20409;-81
2023/03/13 08:42:28;;;;;;;3.47;1.30;;;;;;;;;;5032557;28;20476;-81
2023/03/13 08:44:54;;;;;;;2.88;1.60;;;;;;;;;;5032837;28;20433;-81
2023/03/13 08:47:20;;;;;;;2.15;1.27;;;;;;;;;;5032383;28;20592;-81
2023/03/13 08:49:46;;;;;;;2.90;1.33;;;;;;;;;;5032509;28;20849;-81
2023/03/13 08:52:12;;;;;;;5.28;1.65;;;;;;;;;;5032424;28;20387;-80
2023/03/13 08:54:38;;;;;;;2.80;1.40;;;;;;;;;;5031577;28;20372;-81
2023/03/13 08:57:04;;;;;;;5.40;1.70;;;;;;;;;;5031599;28;20440;-81
2023/03/13 08:59:30;;;;;;;2.92;1.83;;;;;;;;;;5031526;28;20387;-81
2023/03/13 09:01:56;;;;;;;5.57;2.10;;;;;;;;;;5031968;28;20470;-81
2023/03/13 09:04:22;;;;;;;3.53;2.00;;;;;;;;;;5031683;28;20781;-81
2023/03/13 09:06:48;;;;;;;2.33;1.50;;;;;;;;;;5031437;28;20445;-81
2023/03/13 09:09:14;;;;;;;1.85;1.40;;;;;;;;;;5038193;28;20401;-80
2023/03/13 09:11:40;;;;;;;2.90;1.27;;;;;;;;;;5031423;28;20387;-81
2023/03/13 09:14:06;;;;;;;2.45;1.20;;;;;;;;;;5031483;28;20375;-80
2023/03/13 09:16:33;;;;;;;2.13;1.67;;;;;;;;;;5031227;28;20399;-81
2023/03/13 09:19:00;;;;;;;2.33;1.40;;;;;;;;;;5031383;28;20390;-81
2023/03/13 09:21:27;;;;;;;2.28;1.15;;;;;;;;;;5031263;28;20414;-81
2023/03/13 09:23:53;;;;;;;2.27;1.00;;;;;;;;;;5031394;28;20816;-81
2023/03/13 09:26:20;;;;;;;2.40;1.20;;;;;;;;;;5031391;28;20415;-81
2023/03/13 09:28:46;;;;;;;2.10;1.08;;;;;;;;;;5031055;28;20397;-81
2023/03/13 09:31:22;;;;;;;1.40;1.00;;;;;;;;;;5032453;28;20387;-81
2023/03/13 09:33:49;;;;;;;3.42;1.15;;;;;;;;;;5031119;28;20406;-81
2023/03/13 09:36:15;;;;;;;1.57;0.90;;;;;;;;;;5029611;28;20581;-81
2023/03/13 09:38:42;;;;;;;2.95;0.90;;;;;;;;;;5031605;28;20379;-81
2023/03/13 09:41:19;;;;;;;4.68;1.20;;;;;;;;;;5031083;28;20459;-81
2023/03/13 09:43:51;;;;;;;1.52;0.95;;;;;;;;;;5042438;28;20391;-81
2023/03/13 09:46:21;;;;;;;1.33;0.95;;;;;;;;;;5043619;28;20470;-81
2023/03/13 09:48:50;;;;;;;2.70;0.80;;;;;;;;;;5036357;28;20950;-81
2023/03/13 09:51:16;;;;;;;1.83;0.95;;;;;;;;;;5036305;28;20379;-80
2023/03/13 09:53:45;;;;;;;2.25;0.95;;;;;;;;;;5036006;28;20383;-81
2023/03/13 09:56:19;;;;;;;1.65;0.88;;;;;;;;;;5035560;28;20407;-81
2023/03/13 09:58:51;;;;;;;2.37;1.00;;;;;;;;;;5033745;28;20410;-81
2023/03/13 10:01:21;;;;;;;2.25;0.90;;;;;;;;;;5032415;28;20759;-81
2023/03/13 10:04:07;;;;;;;0.80;0.60;;;;;;;;;;5035331;28;20382;-81
2023/03/13 10:06:40;;;;;;;2.53;0.77;;;;;;;;;;5035172;28;20414;-81
2023/03/13 10:09:15;;;;;;;1.10;0.73;;;;;;;;;;5034695;28;20383;-81
2023/03/13 10:11:48;;;;;;;1.13;0.60;;;;;;;;;;5034801;28;20737;-81
2023/03/13 10:14:29;;;;;;;1.20;0.70;;;;;;;;;;5034947;28;20508;-81
2023/03/13 10:17:06;;;;;;;1.63;0.80;;;;;;;;;;5036105;28;20481;-81
2023/03/13 10:19:36;;;;;;;2.03;0.75;;;;;;;;;;5038359;28;20472;-81
2023/03/13 10:22:03;;;;;;;2.88;0.60;;;;;;;;;;5034566;28;20741;-81
2023/03/13 10:24:38;;;;;;;6.07;1.10;;;;;;;;;;5035026;28;20379;-81
2023/03/13 10:27:04;;;;;;;8.13;1.00;;;;;;;;;;5033048;28;20410;-81
2023/03/13 10:29:31;;;;;;;4.63;1.17;;;;;;;;;;5034457;28;20391;-81
2023/03/13 10:31:58;;;;;;;3.70;0.85;;;;;;;;;;5034376;28;20406;-80
2023/03/13 10:34:25;;;;;;;2.20;0.90;;;;;;;;;;5033166;28;20390;-81
2023/03/13 10:36:54;;;;;;;2.00;0.90;;;;;;;;;;5034309;28;20406;-81
2023/03/13 10:39:21;;;;;;;2.42;1.00;;;;;;;;;;5034214;28;20462;-81
2023/03/13 10:41:48;;;;;;;1.75;0.80;;;;;;;;;;5034254;28;20396;-81
2023/03/13 10:44:18;;;;;;;1.58;0.80;;;;;;;;;;5034359;28;20383;-80
2023/03/13 10:46:46;;;;;;;1.33;0.85;;;;;;;;;;5034138;28;20905;-80
2023/03/13 10:49:16;;;;;;;1.38;0.93;;;;;;;;;;5033836;28;20387;-79
2023/03/13 10:51:50;;;;;;;1.20;0.90;;;;;;;;;;5033961;28;20387;-80
2023/03/13 10:54:29;;;;;;;0.90;0.60;;;;;;;;;;5032931;28;20402;-80
2023/03/13 10:57:07;;;;;;;1.65;0.70;;;;;;;;;;5033848;28;20482;-80
2023/03/13 10:59:38;;;;;;;2.72;1.00;;;;;;;;;;5033647;28;20733;-80
2023/03/13 11:02:19;;;;;;;1.00;0.60;;;;;;;;;;5033867;28;20379;-80
2023/03/13 11:04:48;;;;;;;2.50;0.80;;;;;;;;;;5033741;28;20386;-80
2023/03/13 11:07:21;;;;;;;1.77;0.70;;;;;;;;;;5033784;28;21004;-80
2023/03/13 11:10:10;;;;;;;2.23;0.70;;;;;;;;;;5033585;28;20514;-80
2023/03/13 11:12:36;;;;;;;0.82;0.50;;;;;;;;;;5032966;28;20406;-80
2023/03/13 11:15:04;;;;;;;2.17;0.68;;;;;;;;;;5032890;28;20880;-80
2023/03/13 11:17:37;;;;;;;1.20;0.70;;;;;;;;;;5042017;28;20509;-80
2023/03/13 11:20:04;;;;;;;0.90;0.80;;;;;;;;;;5033293;28;20406;-79
2023/03/13 11:22:42;;;;;;;2.03;0.65;;;;;;;;;;5020956;28;20483;-77
2023/03/13 11:25:17;;;;;;;2.70;1.10;;;;;;;;;;5012772;28;20393;-80
2023/03/13 11:28:01;;;;;;;1.25;0.70;;;;;;;;;;5025336;28;20394;-80
2023/03/13 11:30:27;;;;;;;2.63;1.27;;;;;;;;;;5033118;28;20386;-80
2023/03/13 11:32:55;;;;;;;4.55;1.90;;;;;;;;;;5033130;28;20383;-80
2023/03/13 11:35:28;;;;;;;1.40;1.00;;;;;;;;;;5027072;28;20422;-79
2023/03/13 11:37:56;;;;;;;2.20;1.58;;;;;;;;;;5023018;28;20928;-81
2023/03/13 11:40:25;;;;;;;5.15;1.60;;;;;;;;;;5033022;28;20379;-80
2023/03/13 11:42:54;;;;;;;2.47;1.15;;;;;;;;;;5021632;28;20463;-78
2023/03/13 11:45:32;;;;;;;1.93;1.00;;;;;;;;;;5032950;28;20383;-78
2023/03/13 11:47:58;;;;;;;1.10;0.57;;;;;;;;;;5021691;28;20520;-80
2023/03/13 11:50:30;;;;;;;1.70;1.00;;;;;;;;;;5032774;28;20462;-80
2023/03/13 11:52:59;;;;;;;1.15;0.60;;;;;;;;;;5031373;28;20879;-81
2023/03/13 11:55:37;;;;;;;1.17;0.65;;;;;;;;;;5032731;28;20406;-78
2023/03/13 11:58:21;;;;;;;1.27;0.60;;;;;;;;;;5031808;28;20396;-81
2023/03/13 12:00:49;;;;;;;0.90;0.60;;;;;;;;;;5031770;28;20384;-80
2023/03/13 12:03:18;;;;;;;1.58;0.57;;;;;;;;;;5032205;28;20421;-80
2023/03/13 12:06:03;;;;;;;1.35;0.70;;;;;;;;;;5031268;28;20378;-79
2023/03/13 12:08:29;;;;;;;1.60;0.50;;;;;;;;;;5031551;28;20415;-79
2023/03/13 12:11:16;;;;;;;1.27;0.60;;;;;;;;;;5032230;28;20533;-79
2023/03/13 12:13:45;;;;;;;1.75;0.50;;;;;;;;;;5032446;28;20430;-79
2023/03/13 12:16:23;;;;;;;4.68;0.90;;;;;;;;;;5037361;28;20920;-79
2023/03/13 12:18:50;;;;;;;1.35;0.40;;;;;;;;;;5026687;28;20391;-80
2023/03/13 12:21:25;;;;;;;1.20;0.40;;;;;;;;;;5031808;28;20891;-80
2023/03/13 12:24:00;;;;;;;1.80;0.60;;;;;;;;;;5027725;28;20391;-80
2023/03/13 12:26:47;;;;;;;1.00;0.40;;;;;;;;;;5032238;28;20864;-80
2023/03/13 12:29:16;;;;;;;1.60;0.50;;;;;;;;;;5031028;28;20375;-80
2023/03/13 12:31:52;;;;;;;1.33;0.57;;;;;;;;;;5032035;28;20473;-80
2023/03/13 12:34:24;;;;;;;1.20;0.40;;;;;;;;;;5032004;28;20426;-80
2023/03/13 12:36:58;;;;;;;0.57;0.50;;;;;;;;;;5031892;28;20411;-80
2023/03/13 12:39:32;;;;;;;1.30;0.43;;;;;;;;;;5031873;28;20383;-80
2023/03/13 12:42:17;;;;;;;0.90;0.40;;;;;;;;;;5031865;28;20379;-80
2023/03/13 12:44:43;;;;;;;0.60;0.40;;;;;;;;;;5021990;28;20459;-80
2023/03/13 12:47:19;;;;;;;0.60;0.30;;;;;;;;;;5031822;28;20864;-80
2023/03/13 12:50:00;;;;;;;0.88;0.30;;;;;;;;;;5021170;28;20390;-81
2023/03/13 12:52:32;;;;;;;0.90;0.30;;;;;;;;;;5031730;28;20383;-81
2023/03/13 12:55:17;;;;;;;0.75;0.30;;;;;;;;;;5031700;28;20385;-80
2023/03/13 12:57:53;;;;;;;0.50;0.28;;;;;;;;;;5031734;28;20756;-80
2023/03/13 13:00:23;;;;;;;0.82;0.40;;;;;;;;;;5031570;28;20387;-80
2023/03/13 13:03:05;;;;;;;1.50;0.30;;;;;;;;;;5031307;28;20792;-80
2023/03/13 13:05:31;;;;;;;0.70;0.30;;;;;;;;;;5030489;28;20375;-79
2023/03/13 13:07:58;;;;;;;2.53;0.43;;;;;;;;;;5031145;28;20461;-80
2023/03/13 13:10:25;;;;;;;1.30;0.40;;;;;;;;;;5032552;28;20848;-80
2023/03/13 13:13:09;;;;;;;0.88;0.40;;;;;;;;;;5031521;28;20449;-79
2023/03/13 13:15:36;;;;;;;1.90;0.70;;;;;;;;;;5031387;28;20437;-79
2023/03/13 13:18:23;;;;;;;1.57;0.60;;;;;;;;;;5035087;28;20378;-80
2023/03/13 13:21:09;;;;;;;1.80;1.30;;;;;;;;;;5025660;28;20401;-79
2023/03/13 13:23:40;;;;;;;1.05;0.60;;;;;;;;;;5033772;28;20466;-79
2023/03/13 13:26:29;;;;;;;1.45;0.63;;;;;;;;;;5032627;28;20865;-79
2023/03/13 13:28:57;;;;;;;1.70;0.40;;;;;;;;;;5025998;28;20923;-80
2023/03/13 13:31:41;;;;;;;0.60;0.32;;;;;;;;;;5033070;28;20387;-79
2023/03/13 13:34:07;;;;;;;1.98;0.50;;;;;;;;;;5028975;28;20429;-79
2023/03/13 13:36:40;;;;;;;0.47;0.25;;;;;;;;;;5031523;28;20410;-79
2023/03/13 13:39:20;;;;;;;0.77;0.38;;;;;;;;;;5031685;28;20379;-79
2023/03/13 13:41:46;;;;;;;1.10;0.40;;;;;;;;;;5030678;28;20383;-79
2023/03/13 13:44:23;;;;;;;1.25;0.40;;;;;;;;;;5031018;28;20389;-80
2023/03/13 13:46:50;;;;;;;0.90;0.60;;;;;;;;;;5030575;28;21221;-79
2023/03/13 13:49:20;;;;;;;1.05;0.60;;;;;;;;;;5031132;28;20435;-80
2023/03/13 13:52:18;;;;;;;0.77;0.50;;;;;;;;;;5031013;28;20487;-79
2023/03/13 13:54:47;;;;;;;1.67;0.30;;;;;;;;;;5028919;28;20791;-79
2023/03/13 13:57:45;;;;;;;0.77;0.30;;;;;;;;;;5030188;28;20992;-80
2023/03/13 14:00:21;;;;;;;1.50;0.43;;;;;;;;;;4994368;28;20403;-80
2023/03/13 14:02:55;;;;;;;1.95;0.80;;;;;;;;;;5031075;28;20502;-79
2023/03/13 14:05:22;;;;;;;0.55;0.45;;;;;;;;;;5030407;28;20376;-79
2023/03/13 14:07:48;;;;;;;0.90;0.50;;;;;;;;;;5031037;28;20401;-80
2023/03/13 14:10:33;;;;;;;0.93;0.52;;;;;;;;;;5030777;28;20498;-79
2023/03/13 14:13:00;;;;;;;0.50;0.40;;;;;;;;;;5030662;28;20717;-79
2023/03/13 14:15:26;;;;;;;1.45;0.60;;;;;;;;;;5030790;28;20883;-79
2023/03/13 14:17:54;;;;;;;0.63;0.50;;;;;;;;;;5030559;28;20443;-79
2023/03/13 14:20:20;;;;;;;1.00;0.50;;;;;;;;;;5030156;28;20375;-80
2023/03/13 14:22:46;;;;;;;1.10;0.55;;;;;;;;;;5030750;28;20394;-80
2023/03/13 14:25:12;;;;;;;0.80;0.50;;;;;;;;;;5033286;28;20372;-80
2023/03/13 14:27:42;;;;;;;4.30;0.50;;;;;;;;;;5030253;28;20879;-80
2023/03/13 14:30:09;;;;;;;2.25;0.63;;;;;;;;;;5032944;28;20390;-80
2023/03/13 14:32:35;;;;;;;0.80;0.40;;;;;;;;;;5034205;28;20383;-80
2023/03/13 14:35:01;;;;;;;0.80;0.50;;;;;;;;;;5034366;28;20470;-81
2023/03/13 14:37:47;;;;;;;3.75;0.85;;;;;;;;;;5049459;28;20908;-80
2023/03/13 14:40:16;;;;;;;1.52;0.60;;;;;;;;;;5034249;28;20872;-80
2023/03/13 14:42:45;;;;;;;1.92;0.47;;;;;;;;;;5033946;28;20471;-81
2023/03/13 14:45:15;;;;;;;1.33;0.40;;;;;;;;;;5034444;28;20470;-81
2023/03/13 14:47:41;;;;;;;2.70;0.50;;;;;;;;;;5020694;28;20860;-83
2023/03/13 14:50:12;;;;;;;1.55;1.05;;;;;;;;;;5033188;28;20807;-82
2023/03/13 14:52:43;;;;;;;1.70;1.10;;;;;;;;;;5033246;28;20380;-82